Time;durP1;ratioP1;P1;durP2;ratioP2;P2;SDS_P1;SDS_P2;PMS_P1;PMS_P2;Temp;Humidity;BMP_temperature;BMP_pressure;BME280_temperature;BME280_humidity;BME280_pressure;Samples;Min_cycle;Max_cycle;Signal;HPM_P1;HPM_P2
2021/07/21 00:00:32;;;;;;;22.27;15.40;;;;;16.80;101722.00;;;;10413911;28;20201;-77
2021/07/21 00:05:37;;;;;;;25.07;14.73;;;;;16.70;101721.00;;;;10409936;28;20527;-75
2021/07/21 00:10:40;;;;;;;27.63;16.40;;;;;16.70;101718.00;;;;10425825;28;20198;-77
2021/07/21 00:21:01;;;;;;;21.53;15.07;;;;;16.50;101706.00;;;;10489716;28;20186;-75
2021/07/21 00:26:04;;;;;;;24.27;14.80;;;;;16.40;101708.00;;;;10448721;28;20190;-75
2021/07/21 00:31:06;;;;;;;25.53;16.00;;;;;16.20;101698.00;;;;10442033;28;20267;-75
2021/07/21 00:36:08;;;;;;;23.50;14.93;;;;;16.00;101690.00;;;;10482453;28;20293;-75
2021/07/21 00:41:10;;;;;;;24.17;15.70;;;;;15.90;101688.00;;;;10432802;28;20215;-75
2021/07/21 00:46:12;;;;;;;27.87;16.07;;;;;15.80;101685.00;;;;10424873;28;20221;-75
2021/07/21 00:51:17;;;;;;;24.70;15.63;;;;;15.70;101680.00;;;;10425903;28;20195;-75
2021/07/21 00:56:20;;;;;;;27.13;15.90;;;;;15.60;101684.00;;;;10427198;28;20280;-75
2021/07/21 01:01:22;;;;;;;24.53;15.57;;;;;15.50;101682.00;;;;10425486;28;20566;-75
2021/07/21 01:06:25;;;;;;;26.37;17.00;;;;;15.40;101676.00;;;;10438801;28;20198;-76
2021/07/21 01:11:38;;;;;;;25.97;15.67;;;;;15.30;101679.00;;;;10450386;28;20204;-76
2021/07/21 01:16:47;;;;;;;26.03;16.30;;;;;15.20;101689.00;;;;10439187;28;20224;-76
2021/07/21 01:22:06;;;;;;;27.83;15.97;;;;;15.20;101682.00;;;;10436219;28;20195;-75
2021/07/21 01:27:16;;;;;;;28.13;15.40;;;;;15.10;101682.00;;;;10444267;28;20194;-76
2021/07/21 01:32:22;;;;;;;24.30;15.00;;;;;15.00;101692.00;;;;10437928;28;20218;-76
2021/07/21 01:37:28;;;;;;;27.47;16.50;;;;;14.90;101682.00;;;;10437839;28;20206;-76
2021/07/21 01:42:30;;;;;;;26.60;16.43;;;;;14.80;101691.00;;;;10432810;28;20251;-75
2021/07/21 01:47:34;;;;;;;27.87;17.10;;;;;14.70;101688.00;;;;10445897;28;20239;-75
2021/07/21 01:52:40;;;;;;;24.27;16.27;;;;;14.60;101680.00;;;;10444909;28;20198;-76
2021/07/21 01:57:43;;;;;;;30.83;16.90;;;;;14.60;101683.00;;;;10433818;28;20217;-75
2021/07/21 02:02:59;;;;;;;29.20;16.70;;;;;14.60;101688.00;;;;10398774;28;20198;-76
2021/07/21 02:08:23;;;;;;;28.80;16.83;;;;;14.60;101695.00;;;;10429501;28;20204;-75
2021/07/21 02:13:37;;;;;;;24.43;15.03;;;;;14.50;101698.00;;;;10432208;28;20211;-76
2021/07/21 02:18:54;;;;;;;29.87;16.23;;;;;14.50;101690.00;;;;10442007;28;20200;-75
2021/07/21 02:24:00;;;;;;;31.80;18.17;;;;;14.50;101689.00;;;;10428363;28;20198;-75
2021/07/21 02:29:28;;;;;;;35.07;17.73;;;;;14.40;101688.00;;;;10424793;28;20288;-76
2021/07/21 02:34:34;;;;;;;29.03;18.30;;;;;14.30;101695.00;;;;10444581;28;20293;-76
2021/07/21 02:39:37;;;;;;;28.67;17.40;;;;;14.30;101691.00;;;;10443871;28;20186;-76
2021/07/21 02:44:42;;;;;;;32.73;17.30;;;;;14.20;101682.00;;;;10416177;28;20202;-75
2021/07/21 02:49:46;;;;;;;25.77;15.30;;;;;14.10;101687.00;;;;10473752;28;20263;-75
2021/07/21 02:55:13;;;;;;;30.97;17.50;;;;;14.10;101689.00;;;;10477746;28;20201;-76
2021/07/21 03:00:22;;;;;;;26.80;17.27;;;;;14.00;101688.00;;;;10450744;28;21166;-75
2021/07/21 03:05:33;;;;;;;28.77;16.37;;;;;14.00;101685.00;;;;10438491;28;20236;-75
2021/07/21 03:10:40;;;;;;;26.53;16.10;;;;;13.90;101685.00;;;;10426255;28;20213;-75
2021/07/21 03:15:47;;;;;;;29.03;16.87;;;;;13.90;101685.00;;;;10405034;28;20254;-76
2021/07/21 03:20:54;;;;;;;24.33;15.63;;;;;13.90;101681.00;;;;10458388;28;20561;-76
2021/07/21 03:26:01;;;;;;;30.97;16.53;;;;;13.80;101691.00;;;;10454044;28;20277;-76
2021/07/21 03:31:09;;;;;;;25.47;16.07;;;;;13.80;101692.00;;;;10456357;28;20661;-75
2021/07/21 03:36:13;;;;;;;26.13;16.40;;;;;13.70;101699.00;;;;10411412;28;20214;-75
2021/07/21 03:41:35;;;;;;;29.57;16.80;;;;;13.60;101699.00;;;;10475198;28;20234;-75
2021/07/21 03:46:39;;;;;;;30.73;16.53;;;;;13.50;101701.00;;;;10446695;28;20185;-76
2021/07/21 03:51:41;;;;;;;25.63;16.10;;;;;13.50;101705.00;;;;10450146;28;20198;-76
2021/07/21 03:57:03;;;;;;;29.43;16.47;;;;;13.50;101697.00;;;;10428788;28;20299;-76
2021/07/21 04:02:10;;;;;;;30.37;17.93;;;;;13.60;101698.00;;;;10442025;28;20264;-75
2021/07/21 04:07:15;;;;;;;30.37;17.53;;;;;13.60;101707.00;;;;10450619;28;20979;-76
2021/07/21 04:12:25;;;;;;;32.03;17.87;;;;;13.60;101703.00;;;;10443221;28;20198;-76
2021/07/21 04:17:34;;;;;;;28.87;16.57;;;;;13.70;101704.00;;;;10409313;28;20210;-76
2021/07/21 04:22:43;;;;;;;30.73;18.03;;;;;13.70;101705.00;;;;10439252;28;20190;-76
2021/07/21 04:27:48;;;;;;;31.03;17.90;;;;;13.80;101723.00;;;;10443720;28;20195;-76
2021/07/21 04:32:55;;;;;;;29.77;17.10;;;;;13.90;101722.00;;;;10425407;28;20623;-75
2021/07/21 04:37:57;;;;;;;31.00;18.83;;;;;14.10;101723.00;;;;10448094;28;20220;-76
2021/07/21 04:43:11;;;;;;;29.40;17.30;;;;;14.20;101722.00;;;;10438946;28;20894;-76
2021/07/21 04:48:15;;;;;;;28.67;17.57;;;;;14.40;101725.00;;;;10468670;28;20186;-76
2021/07/21 04:53:31;;;;;;;28.27;16.90;;;;;14.60;101736.00;;;;10452131;28;20276;-76
2021/07/21 04:58:33;;;;;;;31.73;18.27;;;;;14.70;101728.00;;;;10481699;28;20201;-76
2021/07/21 05:03:43;;;;;;;28.57;18.57;;;;;14.80;101739.00;;;;10440082;28;20194;-76
2021/07/21 05:08:51;;;;;;;33.43;18.50;;;;;15.20;101736.00;;;;10407182;28;20561;-75
2021/07/21 05:13:56;;;;;;;32.33;19.73;;;;;15.50;101734.00;;;;10431384;28;20759;-76
2021/07/21 05:19:03;;;;;;;33.67;20.13;;;;;15.70;101742.00;;;;10436178;28;20284;-76
2021/07/21 05:24:06;;;;;;;27.43;17.47;;;;;16.00;101746.00;;;;10447076;28;20190;-76
2021/07/21 05:29:08;;;;;;;31.83;18.60;;;;;16.30;101763.00;;;;10429800;28;20198;-76
2021/07/21 05:34:30;;;;;;;36.07;21.83;;;;;16.70;101763.00;;;;10441177;28;20221;-76
2021/07/21 05:39:54;;;;;;;34.67;20.27;;;;;17.20;101772.00;;;;10493380;28;20267;-76
2021/07/21 05:45:12;;;;;;;34.17;19.53;;;;;17.60;101775.00;;;;10429311;28;20201;-76
2021/07/21 05:50:14;;;;;;;31.60;20.70;;;;;18.10;101787.00;;;;10463300;28;20193;-76
2021/07/21 05:55:28;;;;;;;35.97;22.50;;;;;18.60;101793.00;;;;10420615;28;20263;-76
2021/07/21 06:00:32;;;;;;;34.40;22.58;;;;;19.10;101811.00;;;;10479891;28;20194;-76
2021/07/21 06:05:39;;;;;;;34.65;21.63;;;;;19.40;101807.00;;;;10451019;28;20185;-76
2021/07/21 06:11:01;;;;;;;27.95;19.73;;;;;19.80;101803.00;;;;10489362;28;20225;-76
2021/07/21 06:16:06;;;;;;;28.38;20.55;;;;;20.20;101805.00;;;;10404600;28;20218;-76
2021/07/21 06:21:11;;;;;;;25.75;17.85;;;;;20.80;101808.00;;;;10429823;28;20568;-75
2021/07/21 06:26:33;;;;;;;22.13;16.63;;;;;21.30;101817.00;;;;10429964;28;20667;-76
2021/07/21 06:31:52;;;;;;;21.75;15.10;;;;;21.60;101824.00;;;;10467814;28;20224;-76
2021/07/21 06:36:55;;;;;;;21.90;15.00;;;;;21.90;101821.00;;;;10453481;28;20213;-76
2021/07/21 06:41:57;;;;;;;19.50;13.88;;;;;22.20;101831.00;;;;10442915;28;20197;-75
2021/07/21 06:46:59;;;;;;;18.23;13.98;;;;;22.60;101830.00;;;;10422420;28;20206;-76
2021/07/21 06:52:05;;;;;;;22.15;14.95;;;;;22.90;101833.00;;;;10421275;28;20649;-75
2021/07/21 06:57:12;;;;;;;20.15;14.15;;;;;23.30;101826.00;;;;10408732;28;20224;-76
2021/07/21 07:02:34;;;;;;;17.25;13.63;;;;;23.60;101836.00;;;;10434604;28;20688;-76
2021/07/21 07:08:03;;;;;;;19.30;13.27;;;;;23.90;101835.00;;;;10444585;28;20930;-76
2021/07/21 07:13:40;;;;;;;17.08;13.43;;;;;24.20;101838.00;;;;10419782;28;20271;-76
2021/07/21 07:18:44;;;;;;;18.30;13.50;;;;;24.70;101836.00;;;;10477457;28;20190;-76
2021/07/21 07:23:49;;;;;;;16.17;12.10;;;;;24.80;101846.00;;;;10464580;28;20194;-76
2021/07/21 07:28:56;;;;;;;14.93;11.32;;;;;25.10;101837.00;;;;10421901;28;20193;-76
2021/07/21 07:33:59;;;;;;;13.18;10.02;;;;;25.40;101848.00;;;;10427880;28;20220;-76
2021/07/21 07:39:01;;;;;;;14.20;9.60;;;;;25.60;101839.00;;;;10461378;28;20657;-76
2021/07/21 07:44:04;;;;;;;16.98;10.68;;;;;25.70;101836.00;;;;10471880;28;20707;-76
2021/07/21 07:49:06;;;;;;;16.23;10.70;;;;;26.10;101837.00;;;;10444137;28;20203;-76
2021/07/21 07:54:08;;;;;;;13.57;9.23;;;;;26.30;101838.00;;;;10473703;28;20202;-76
2021/07/21 07:59:10;;;;;;;12.48;8.25;;;;;26.60;101833.00;;;;10436961;28;20194;-76
2021/07/21 08:04:12;;;;;;;10.43;7.88;;;;;26.80;101838.00;;;;10436188;28;20256;-76
2021/07/21 08:09:14;;;;;;;13.10;8.10;;;;;27.10;101836.00;;;;10466861;28;20280;-76
2021/07/21 08:14:18;;;;;;;11.50;8.18;;;;;27.40;101836.00;;;;10467927;28;20210;-76
2021/07/21 08:19:21;;;;;;;9.63;7.05;;;;;27.90;101844.00;;;;10463504;28;20194;-76
2021/07/21 08:24:24;;;;;;;10.95;7.95;;;;;28.10;101836.00;;;;10468049;28;20272;-76
2021/07/21 08:29:26;;;;;;;10.20;7.20;;;;;28.40;101837.00;;;;10461990;28;20186;-76
2021/07/21 08:34:27;;;;;;;8.68;6.68;;;;;28.30;101826.00;;;;10434531;28;20210;-76
2021/07/21 08:39:29;;;;;;;9.27;5.85;;;;;28.50;101829.00;;;;10456913;28;20200;-76
2021/07/21 08:44:31;;;;;;;10.75;6.53;;;;;28.70;101827.00;;;;10475028;28;20243;-76
2021/07/21 08:49:33;;;;;;;10.52;7.20;;;;;29.10;101839.00;;;;10448334;28;20195;-76
2021/07/21 08:54:36;;;;;;;7.47;6.18;;;;;29.20;101828.00;;;;10452422;28;20206;-76
2021/07/21 08:59:38;;;;;;;10.10;6.30;;;;;29.30;101829.00;;;;10455774;28;20260;-76
2021/07/21 09:04:41;;;;;;;9.35;6.65;;;;;29.80;101826.00;;;;10465802;28;20190;-76
2021/07/21 09:09:43;;;;;;;8.73;6.35;;;;;29.90;101829.00;;;;10458305;28;20304;-76
2021/07/21 09:14:45;;;;;;;11.18;6.85;;;;;29.60;101828.00;;;;10436110;28;20218;-77
2021/07/21 09:19:49;;;;;;;10.55;5.90;;;;;29.90;101830.00;;;;10477299;28;20201;-76
2021/07/21 09:25:16;;;;;;;9.20;6.50;;;;;30.10;101835.00;;;;10483624;28;20189;-76
2021/07/21 09:30:21;;;;;;;8.63;6.90;;;;;30.50;101839.00;;;;10443984;28;20197;-76
2021/07/21 09:35:26;;;;;;;8.77;7.20;;;;;30.80;101828.00;;;;10416815;28;20694;-76
2021/07/21 09:40:28;;;;;;;13.25;7.78;;;;;30.50;101835.00;;;;10460478;28;20189;-76
2021/07/21 09:45:36;;;;;;;9.48;7.72;;;;;30.50;101843.00;;;;10470716;28;20194;-76
2021/07/21 09:50:43;;;;;;;10.00;7.88;;;;;30.80;101840.00;;;;10445905;28;20573;-76
2021/07/21 09:55:46;;;;;;;10.65;8.27;;;;;31.10;101841.00;;;;10450238;28;20206;-76
2021/07/21 10:00:48;;;;;;;9.68;7.70;;;;;30.90;101839.00;;;;10434299;28;20201;-76
2021/07/21 10:06:01;;;;;;;7.53;6.43;;;;;31.00;101833.00;;;;10455130;28;20833;-76
2021/07/21 10:11:21;;;;;;;8.52;7.00;;;;;31.00;101836.00;;;;10479757;28;20182;-76
2021/07/21 10:16:46;;;;;;;8.20;7.22;;;;;30.70;101835.00;;;;10479758;28;20619;-76
2021/07/21 10:21:53;;;;;;;9.05;7.80;;;;;30.80;101833.00;;;;10463306;28;20200;-76
2021/07/21 10:26:56;;;;;;;8.15;7.18;;;;;30.90;101838.00;;;;10463086;28;20197;-76
2021/07/21 10:31:58;;;;;;;8.10;7.30;;;;;30.90;101829.00;;;;10487355;28;20213;-77
2021/07/21 10:37:00;;;;;;;9.00;7.63;;;;;31.00;101824.00;;;;10438358;28;20578;-76
2021/07/21 10:42:06;;;;;;;10.18;7.43;;;;;30.80;101823.00;;;;10438187;28;20700;-76
2021/07/21 10:47:25;;;;;;;10.20;7.70;;;;;30.70;101829.00;;;;10463105;28;20194;-76
2021/07/21 11:03:31;;;;;;;8.50;7.20;;;;;31.50;101823.00;;;;10470538;28;20730;-76
2021/07/21 11:08:44;;;;;;;7.65;6.78;;;;;31.70;101815.00;;;;10455704;28;20182;-76
2021/07/21 11:13:57;;;;;;;9.73;6.88;;;;;32.10;101803.00;;;;10461675;28;20236;-76
2021/07/21 11:18:59;;;;;;;9.15;6.95;;;;;32.00;101805.00;;;;10446019;28;20289;-77
2021/07/21 11:24:02;;;;;;;7.68;6.72;;;;;31.80;101808.00;;;;10444280;28;20194;-76
2021/07/21 11:29:25;;;;;;;7.95;6.80;;;;;32.20;101806.00;;;;10470515;28;20186;-76
2021/07/21 11:34:38;;;;;;;9.38;7.57;;;;;32.00;101798.00;;;;10464672;28;20209;-76
2021/07/21 11:39:51;;;;;;;8.85;6.93;;;;;32.00;101804.00;;;;10444478;28;20543;-76
2021/07/21 11:45:03;;;;;;;8.10;6.97;;;;;32.10;101799.00;;;;10466197;28;20260;-76
2021/07/21 11:50:17;;;;;;;8.02;7.15;;;;;32.20;101806.00;;;;10427819;28;20202;-76
2021/07/21 11:55:28;;;;;;;10.43;7.03;;;;;32.30;101809.00;;;;10428503;28;20221;-76
2021/07/21 12:00:30;;;;;;;7.90;6.85;;;;;32.40;101800.00;;;;10427312;28;20626;-76
2021/07/21 12:05:33;;;;;;;8.80;7.15;;;;;32.50;101805.00;;;;10443179;28;20240;-76
2021/07/21 12:10:54;;;;;;;11.13;6.90;;;;;32.50;101798.00;;;;10443265;28;20198;-76
2021/07/21 12:16:00;;;;;;;8.60;7.13;;;;;32.60;101798.00;;;;10436871;28;20214;-76
2021/07/21 12:21:08;;;;;;;7.22;5.88;;;;;32.50;101804.00;;;;10442026;28;20232;-76
2021/07/21 12:26:10;;;;;;;8.35;6.80;;;;;32.50;101811.00;;;;10442350;28;20630;-76
2021/07/21 12:31:12;;;;;;;7.93;6.63;;;;;32.30;101804.00;;;;10442936;28;20194;-76
2021/07/21 12:36:14;;;;;;;9.85;6.80;;;;;31.90;101804.00;;;;10458030;28;20688;-76
2021/07/21 12:41:22;;;;;;;7.93;6.90;;;;;31.90;101800.00;;;;10425748;28;20646;-76
2021/07/21 12:46:24;;;;;;;8.77;6.47;;;;;32.20;101802.00;;;;10479166;28;20679;-76
2021/07/21 12:51:27;;;;;;;7.05;6.35;;;;;32.30;101797.00;;;;10466673;28;20198;-76
2021/07/21 12:56:29;;;;;;;8.07;7.28;;;;;32.30;101786.00;;;;10482324;28;20213;-76
2021/07/21 13:01:31;;;;;;;8.38;6.60;;;;;32.10;101791.00;;;;10451414;28;20204;-76
2021/07/21 13:06:35;;;;;;;8.77;6.88;;;;;31.90;101793.00;;;;10481747;28;20212;-76
2021/07/21 13:11:37;;;;;;;8.73;7.72;;;;;32.20;101787.00;;;;10424144;28;20198;-76
2021/07/21 13:16:44;;;;;;;7.40;6.60;;;;;32.60;101787.00;;;;10472541;28;20252;-76
2021/07/21 13:21:47;;;;;;;11.45;7.40;;;;;32.40;101787.00;;;;10464873;28;20201;-76
2021/07/21 13:26:58;;;;;;;8.10;6.93;;;;;32.00;101787.00;;;;10506027;28;20193;-76
2021/07/21 13:32:03;;;;;;;7.38;6.60;;;;;32.00;101792.00;;;;10494593;28;20228;-76
2021/07/21 13:37:08;;;;;;;11.80;7.35;;;;;32.20;101795.00;;;;10423521;28;20683;-76
2021/07/21 13:42:18;;;;;;;10.27;7.75;;;;;32.60;101786.00;;;;10476305;28;20201;-76
2021/07/21 13:47:27;;;;;;;8.50;7.35;;;;;33.40;101779.00;;;;10464604;28;20192;-76
2021/07/21 13:52:29;;;;;;;11.40;8.45;;;;;33.90;101786.00;;;;10478038;28;20208;-76
2021/07/21 13:57:31;;;;;;;8.98;7.07;;;;;35.00;101771.00;;;;10423538;28;20233;-76
2021/07/21 14:02:33;;;;;;;10.90;7.20;;;;;36.20;101771.00;;;;10457297;28;20193;-76
2021/07/21 14:07:35;;;;;;;12.52;7.57;;;;;36.50;101774.00;;;;10440344;28;20191;-76
2021/07/21 14:12:37;;;;;;;10.38;6.90;;;;;37.10;101772.00;;;;10406128;28;20210;-76
2021/07/21 14:17:39;;;;;;;7.55;6.70;;;;;36.90;101771.00;;;;10457671;28;20214;-76
2021/07/21 14:22:41;;;;;;;11.00;7.70;;;;;37.30;101771.00;;;;10461550;28;20193;-76
2021/07/21 14:27:43;;;;;;;7.57;6.78;;;;;37.60;101771.00;;;;10500948;28;20174;-77
2021/07/21 14:32:45;;;;;;;7.50;6.50;;;;;38.30;101775.00;;;;10443906;28;20214;-77
2021/07/21 14:37:47;;;;;;;10.88;7.25;;;;;38.70;101765.00;;;;10473880;28;20221;-77
2021/07/21 14:42:49;;;;;;;8.60;6.82;;;;;38.90;101765.00;;;;10458896;28;20226;-77
2021/07/21 14:47:51;;;;;;;8.27;7.18;;;;;38.90;101763.00;;;;10472098;28;20189;-77
2021/07/21 14:52:52;;;;;;;7.25;6.47;;;;;39.10;101767.00;;;;10475892;28;20231;-77
2021/07/21 14:57:58;;;;;;;8.32;7.00;;;;;39.00;101759.00;;;;10441820;28;20247;-77
2021/07/21 15:03:04;;;;;;;6.78;6.05;;;;;39.30;101758.00;;;;10474348;28;20190;-76
2021/07/21 15:08:08;;;;;;;15.35;7.43;;;;;39.30;101758.00;;;;10474321;28;20190;-77
2021/07/21 15:13:10;;;;;;;8.25;6.47;;;;;38.80;101755.00;;;;10473893;28;20193;-77
2021/07/21 15:18:12;;;;;;;9.70;6.32;;;;;39.00;101756.00;;;;10490391;28;20202;-77
2021/07/21 15:23:14;;;;;;;7.05;6.32;;;;;39.30;101752.00;;;;10490276;28;20174;-77
2021/07/21 15:28:16;;;;;;;8.80;7.22;;;;;39.70;101754.00;;;;10473260;28;20534;-76
2021/07/21 15:33:18;;;;;;;10.00;6.82;;;;;39.40;101755.00;;;;10472675;28;20217;-77
2021/07/21 15:38:20;;;;;;;9.38;7.10;;;;;39.40;101764.00;;;;10444845;28;20202;-77
2021/07/21 15:43:22;;;;;;;7.57;6.75;;;;;38.00;101757.00;;;;10431783;28;20210;-77
2021/07/21 15:48:27;;;;;;;7.95;6.65;;;;;37.40;101751.00;;;;10432935;28;20197;-77
2021/07/21 15:53:29;;;;;;;7.38;6.68;;;;;35.30;101759.00;;;;10426189;28;20193;-77
2021/07/21 15:58:31;;;;;;;8.25;7.18;;;;;32.20;101757.00;;;;10448153;28;20198;-77
2021/07/21 16:03:32;;;;;;;7.78;6.70;;;;;30.60;101744.00;;;;10446586;28;20175;-76
2021/07/21 16:08:35;;;;;;;10.43;7.05;;;;;29.80;101738.00;;;;10444650;28;20240;-76
2021/07/21 16:13:36;;;;;;;9.30;6.95;;;;;29.10;101741.00;;;;10443693;28;20530;-76
2021/07/21 16:18:39;;;;;;;7.25;6.45;;;;;29.10;101743.00;;;;10426627;28;20202;-76
2021/07/21 16:23:41;;;;;;;7.28;6.45;;;;;28.70;101747.00;;;;10473050;28;20201;-76
2021/07/21 16:28:43;;;;;;;22.55;17.42;;;;;28.40;101733.00;;;;10484494;28;20189;-76
2021/07/21 16:33:45;;;;;;;9.63;8.32;;;;;28.10;101736.00;;;;10450112;28;20213;-76
2021/07/21 16:38:47;;;;;;;9.98;8.60;;;;;27.90;101737.00;;;;10466323;28;20206;-76
2021/07/21 16:43:49;;;;;;;8.77;6.68;;;;;27.70;101740.00;;;;10483078;28;20227;-76
2021/07/21 16:48:51;;;;;;;7.38;6.18;;;;;27.70;101734.00;;;;10482838;28;20193;-76
2021/07/21 16:53:53;;;;;;;8.70;7.75;;;;;27.60;101738.00;;;;10484445;28;20201;-76
2021/07/21 16:58:56;;;;;;;8.77;7.07;;;;;27.50;101730.00;;;;10465770;28;20216;-76
2021/07/21 17:03:58;;;;;;;8.50;7.07;;;;;27.40;101732.00;;;;10465791;28;20679;-76
2021/07/21 17:09:00;;;;;;;7.78;6.97;;;;;27.30;101729.00;;;;10481489;28;20186;-76
2021/07/21 17:14:02;;;;;;;9.15;8.13;;;;;27.10;101737.00;;;;10465392;28;20205;-76
2021/07/21 17:19:05;;;;;;;8.65;7.32;;;;;27.00;101734.00;;;;10464924;28;20288;-76
2021/07/21 17:24:06;;;;;;;9.95;7.20;;;;;26.80;101743.00;;;;10466772;28;20207;-76
2021/07/21 17:29:08;;;;;;;11.13;8.82;;;;;26.70;101726.00;;;;10481132;28;20595;-76
2021/07/21 17:34:11;;;;;;;10.27;7.95;;;;;26.70;101736.00;;;;10469227;28;20229;-76
2021/07/21 17:39:13;;;;;;;7.90;7.13;;;;;26.50;101734.00;;;;10439402;28;20214;-76
2021/07/21 17:44:15;;;;;;;12.02;8.15;;;;;26.50;101734.00;;;;10457014;28;20190;-76
2021/07/21 17:49:18;;;;;;;12.55;8.77;;;;;26.40;101732.00;;;;10439442;28;20645;-76
2021/07/21 17:54:20;;;;;;;9.70;7.40;;;;;26.20;101733.00;;;;10455383;28;20217;-75
2021/07/21 17:59:21;;;;;;;8.27;6.38;;;;;26.10;101740.00;;;;10438542;28;20687;-76
2021/07/21 18:04:24;;;;;;;7.75;6.85;;;;;25.90;101740.00;;;;10455665;28;20187;-76
2021/07/21 18:09:26;;;;;;;11.68;7.53;;;;;25.60;101739.00;;;;10450908;28;20193;-76
2021/07/21 18:14:28;;;;;;;9.77;7.25;;;;;25.40;101738.00;;;;10497854;28;20196;-76
2021/07/21 18:19:29;;;;;;;9.90;7.30;;;;;25.20;101739.00;;;;10463748;28;20212;-76
2021/07/21 18:24:33;;;;;;;12.32;8.00;;;;;25.00;101732.00;;;;10479443;28;20190;-76
2021/07/21 18:29:35;;;;;;;10.15;7.53;;;;;24.80;101735.00;;;;10462908;28;20201;-76
2021/07/21 18:34:37;;;;;;;9.20;6.68;;;;;24.60;101731.00;;;;10461623;28;20716;-76
2021/07/21 18:39:39;;;;;;;11.98;7.45;;;;;24.40;101734.00;;;;10479599;28;20208;-76
2021/07/21 18:44:41;;;;;;;14.05;7.10;;;;;24.20;101741.00;;;;10497122;28;20665;-76
2021/07/21 18:49:43;;;;;;;8.88;7.18;;;;;24.00;101734.00;;;;10446505;28;20212;-76
2021/07/21 18:54:45;;;;;;;8.82;7.43;;;;;23.80;101740.00;;;;10479276;28;20196;-76
2021/07/21 18:59:51;;;;;;;10.45;7.32;;;;;23.50;101741.00;;;;10478824;28;20248;-76
2021/07/21 19:04:53;;;;;;;10.00;7.28;;;;;23.30;101738.00;;;;10461608;28;20200;-76
2021/07/21 19:09:55;;;;;;;12.75;7.80;;;;;23.10;101738.00;;;;10461804;28;20194;-76
2021/07/21 19:14:57;;;;;;;9.57;8.13;;;;;22.90;101744.00;;;;10462323;28;20193;-76
2021/07/21 19:19:58;;;;;;;8.70;7.35;;;;;22.60;101743.00;;;;10462293;28;20259;-76
2021/07/21 19:25:04;;;;;;;9.90;7.68;;;;;22.40;101746.00;;;;10461492;28;20243;-76
2021/07/21 19:30:06;;;;;;;10.88;7.53;;;;;22.20;101746.00;;;;10498540;28;20674;-76
2021/07/21 19:35:11;;;;;;;11.80;7.95;;;;;22.00;101748.00;;;;10501949;28;20217;-76
2021/07/21 19:40:14;;;;;;;9.20;7.55;;;;;21.80;101747.00;;;;10468813;28;20213;-76
2021/07/21 19:45:16;;;;;;;14.05;8.45;;;;;21.60;101747.00;;;;10485210;28;20201;-76
2021/07/21 19:50:18;;;;;;;13.90;7.55;;;;;21.50;101755.00;;;;10451964;28;20707;-76
2021/07/21 19:55:20;;;;;;;11.23;7.63;;;;;21.40;101755.00;;;;10484630;28;20190;-76
2021/07/21 20:00:24;;;;;;;11.20;7.28;;;;;21.20;101763.00;;;;10485538;28;20217;-76
2021/07/21 20:05:25;;;;;;;9.60;7.55;;;;;21.00;101768.00;;;;10502235;28;20235;-76
2021/07/21 20:10:27;;;;;;;9.82;7.65;;;;;20.90;101762.00;;;;10451445;28;20200;-76
2021/07/21 20:15:29;;;;;;;11.95;8.73;;;;;20.70;101772.00;;;;10483959;28;20652;-75
2021/07/21 20:20:32;;;;;;;11.77;8.32;;;;;20.50;101775.00;;;;10483815;28;20219;-76
2021/07/21 20:25:52;;;;;;;12.77;8.07;;;;;20.40;101780.00;;;;10469505;28;20194;-76
2021/07/21 20:30:54;;;;;;;11.75;8.50;;;;;20.30;101774.00;;;;10483273;28;20649;-76
2021/07/21 20:35:56;;;;;;;13.20;8.90;;;;;20.10;101779.00;;;;10466625;28;20216;-76
2021/07/21 20:40:59;;;;;;;10.88;9.02;;;;;20.00;101782.00;;;;10465322;28;20232;-76
2021/07/21 20:46:01;;;;;;;14.23;9.88;;;;;19.80;101776.00;;;;10466392;28;20196;-76
2021/07/21 20:51:03;;;;;;;12.23;9.80;;;;;19.70;101785.00;;;;10450055;28;20687;-76
2021/07/21 20:56:06;;;;;;;15.02;9.95;;;;;19.60;101785.00;;;;10440814;28;20202;-76
2021/07/21 21:01:08;;;;;;;15.02;9.77;;;;;19.50;101792.00;;;;10424579;28;20653;-76
2021/07/21 21:06:10;;;;;;;14.27;9.50;;;;;19.30;101789.00;;;;10424221;28;20229;-76
2021/07/21 21:11:16;;;;;;;12.32;9.43;;;;;19.20;101784.00;;;;10408388;28;20201;-76
2021/07/21 21:16:18;;;;;;;15.48;9.82;;;;;19.10;101787.00;;;;10424032;28;20210;-76
2021/07/21 21:21:22;;;;;;;12.93;9.77;;;;;19.10;101791.00;;;;10407404;28;20240;-76
2021/07/21 21:26:23;;;;;;;13.90;9.57;;;;;19.00;101794.00;;;;10423465;28;20190;-76
2021/07/21 21:31:25;;;;;;;15.25;9.32;;;;;18.90;101788.00;;;;10456463;28;20189;-76
2021/07/21 21:36:28;;;;;;;12.93;9.60;;;;;18.80;101791.00;;;;10422263;28;20674;-76
2021/07/21 21:41:30;;;;;;;12.57;9.52;;;;;18.70;101798.00;;;;10456121;28;20559;-76
2021/07/21 21:46:32;;;;;;;14.80;9.27;;;;;18.60;101795.00;;;;10422967;28;20194;-75
2021/07/21 21:51:38;;;;;;;12.10;10.23;;;;;18.50;101807.00;;;;10421884;28;21009;-76
2021/07/21 21:56:40;;;;;;;19.57;11.80;;;;;18.30;101802.00;;;;10455516;28;20217;-76
2021/07/21 22:01:42;;;;;;;15.70;11.63;;;;;18.20;101797.00;;;;10455235;28;20273;-76
2021/07/21 22:06:45;;;;;;;14.68;10.98;;;;;18.20;101803.00;;;;10439186;28;20642;-76
2021/07/21 22:11:47;;;;;;;15.20;11.80;;;;;18.10;101797.00;;;;10436203;28;20227;-76
2021/07/21 22:16:49;;;;;;;14.23;12.23;;;;;18.00;101794.00;;;;10446100;28;20208;-76
2021/07/21 22:21:51;;;;;;;16.77;13.17;;;;;17.90;101801.00;;;;10479108;28;20193;-76
2021/07/21 22:26:53;;;;;;;15.90;11.02;;;;;17.90;101802.00;;;;10437103;28;20194;-76
2021/07/21 22:31:58;;;;;;;16.23;11.00;;;;;17.80;101807.00;;;;10437532;28;20974;-76
2021/07/21 22:37:04;;;;;;;14.73;12.17;;;;;17.60;101803.00;;;;10436468;28;20256;-76
2021/07/21 22:42:08;;;;;;;14.82;11.95;;;;;17.50;101808.00;;;;10421635;28;20537;-75
2021/07/21 22:47:11;;;;;;;17.03;12.77;;;;;17.40;101805.00;;;;10437705;28;20213;-76
2021/07/21 22:52:14;;;;;;;16.60;12.97;;;;;17.30;101810.00;;;;10455147;28;20190;-76
2021/07/21 22:57:18;;;;;;;19.07;13.00;;;;;17.30;101805.00;;;;10426951;28;20217;-76
2021/07/21 23:02:58;;;;;;;17.17;12.50;;;;;17.40;101806.00;;;;10437022;28;20191;-76
2021/07/21 23:08:37;;;;;;;14.57;12.40;;;;;17.40;101805.00;;;;10444107;28;20198;-76
2021/07/21 23:14:17;;;;;;;17.13;11.97;;;;;17.40;101806.00;;;;10462301;28;20193;-76
2021/07/21 23:19:19;;;;;;;14.43;12.07;;;;;17.30;101793.00;;;;10428312;28;20301;-76
2021/07/21 23:24:21;;;;;;;16.73;12.73;;;;;17.30;101799.00;;;;10462826;28;20194;-76
2021/07/21 23:29:23;;;;;;;16.57;13.50;;;;;17.20;101799.00;;;;10468112;28;20301;-76
2021/07/21 23:34:30;;;;;;;18.90;13.43;;;;;17.20;101789.00;;;;10465841;28;20592;-76
2021/07/21 23:39:32;;;;;;;17.33;13.97;;;;;17.10;101792.00;;;;10427275;28;20214;-76
2021/07/21 23:44:34;;;;;;;20.53;14.70;;;;;17.10;101800.00;;;;10443854;28;20206;-76
2021/07/21 23:49:35;;;;;;;27.27;17.27;;;;;17.10;101795.00;;;;10443106;28;20187;-76
2021/07/21 23:54:37;;;;;;;18.53;14.60;;;;;17.10;101791.00;;;;10471329;28;20197;-76
2021/07/21 23:59:39;;;;;;;23.43;14.93;;;;;17.10;101797.00;;;;10492968;28;20208;-76
